Bitflower — SBJE — position and weather

sailwx.info

Track history (hours):
 
Tides and Currents Weather Stations Pressure Air Temp Water Temp Dewpoint Dewpoint Depression Visibility Wind Speed Wind Dir Waves Ship Positions

Bitflower

Last reported at 2015-Sep-01 09:33 UTC. Time now 2015-Sep-01 10:12 UTC.
Position N 54°02' E 007°45'.

Length 116 m; draft 5.7 m.

Type: Ship. MMSI: 266009000.

Date/timePositionNaut miles runAvg speedWind from/ knotsBaromVisibWave heightAir tempDewpointWater temp
2015-Sep-01 09:33N 54°02' E 007°45'1010.6
2015-Sep-01 08:33N 54°01' E 008°03'1411.5
2015-Sep-01 07:21N 53°59' E 008°26'1114.4
2015-Sep-01 06:33N 53°53' E 008°43'1414.4
2015-Sep-01 05:33N 53°53' E 009°07'1111.5
2015-Sep-01 04:34N 53°47' E 009°24'1211.9
2015-Sep-01 03:33N 53°36' E 009°35'10 9.7
2015-Sep-01 02:33N 53°33' E 009°50'6 6.3
2015-Sep-01 01:33N 53°29' E 009°58'0 0.0
2015-Sep-01 00:31N 53°29' E 009°58'0 0.0
2015-Aug-31 23:31N 53°29' E 009°58'0 0.0
2015-Aug-31 22:29N 53°29' E 009°58'0 0.0
2015-Aug-31 21:29N 53°29' E 009°58'0 0.0
2015-Aug-31 20:31N 53°29' E 009°58'0 0.0
2015-Aug-31 19:31N 53°29' E 009°58'0 0.0
2015-Aug-31 18:29N 53°29' E 009°58'0 0.0
2015-Aug-31 17:29N 53°29' E 009°58'0 0.0
2015-Aug-31 16:31N 53°29' E 009°58'0 0.0
2015-Aug-31 15:32N 53°29' E 009°58'0 0.0
2015-Aug-31 14:31N 53°29' E 009°58'0 0.0
2015-Aug-31 13:31N 53°29' E 009°58'0 0.0
2015-Aug-31 12:31N 53°29' E 009°58'0 0.0
2015-Aug-31 11:31N 53°29' E 009°58'0 0.0
2015-Aug-31 10:31N 53°29' E 009°58'0 0.0
2015-Aug-31 09:31N 53°29' E 009°58'0 0.0
2015-Aug-31 08:32N 53°29' E 009°58'0 0.0
2015-Aug-31 07:32N 53°29' E 009°58'0 0.0
2015-Aug-31 06:26N 53°29' E 009°58'0 0.0
2015-Aug-31 05:32N 53°29' E 009°58'0 0.0
2015-Aug-31 04:32N 53°29' E 009°58'0 0.0
2015-Aug-31 03:29N 53°29' E 009°58'0 0.0
2015-Aug-31 02:32N 53°29' E 009°58'0 0.0
2015-Aug-31 01:32N 53°29' E 009°58'0 0.0
2015-Aug-31 00:32N 53°29' E 009°58'1 0.9
2015-Aug-30 23:33N 53°30' E 009°57'7 7.4
2015-Aug-30 22:33N 53°34' E 009°47'1110.9
2015-Aug-30 21:32N 53°39' E 009°31'1111.5
2015-Aug-30 20:33N 53°49' E 009°22'10 9.7
2015-Aug-30 19:33N 53°53' E 009°06'1010.2
2015-Aug-30 18:33N 53°50' E 008°49'10 9.7
2015-Aug-30 17:33N 53°57' E 008°38'1110.8
2015-Aug-30 16:33N 53°59' E 008°20'1212.1
2015-Aug-30 15:33N 54°01' E 007°59'1212.4
2015-Aug-30 14:33N 54°08' E 007°41'1211.7
2015-Aug-30 13:33N 54°15' E 007°26'1211.5
2015-Aug-30 12:33N 54°23' E 007°12'1111.3
2015-Aug-30 11:33N 54°29' E 006°55'32613.6
2015-Aug-29 11:33N 56°21' W 002°05'1110.7
2015-Aug-29 10:33N 56°24' W 002°23'1212.0
2015-Aug-29 09:33N 56°27' W 002°44'1 0.1
2015-Aug-28 21:33N 56°27' W 002°47'1111.6
2015-Aug-28 20:33N 56°23' W 002°28'1414.3
2015-Aug-28 19:33N 56°12' W 002°11'7512.5
2015-Aug-28 13:33N 55°04' W 001°12'1312.6
2015-Aug-28 12:32N 54°51' W 001°09'1212.7
2015-Aug-28 11:34N 54°39' W 001°08'3 2.2
2015-Aug-28 10:22N 54°37' W 001°10'0 0.0
2015-Aug-28 09:28N 54°37' W 001°10'0 0.0
2015-Aug-28 07:10N 54°37' W 001°10'0 0.0
2015-Aug-28 06:16N 54°37' W 001°10'2 0.2
2015-Aug-27 20:15N 54°39' W 001°09'710.5
2015-Aug-27 19:32N 54°42' W 000°57'1413.3
2015-Aug-27 18:30N 54°42' W 000°34'1213.1
2015-Aug-27 17:33N 54°41' W 000°12'1312.7
2015-Aug-27 16:33N 54°31' E 000°02'1212.3
2015-Aug-27 15:33N 54°21' E 000°14'1212.1
2015-Aug-27 14:34N 54°11' E 000°25'1212.0
2015-Aug-27 13:33N 54°01' E 000°36'1312.3
2015-Aug-27 12:30N 53°50' E 000°49'4213.7
2015-Aug-27 09:28N 53°16' E 001°30'1213.7
2015-Aug-27 08:33N 53°06' E 001°42'1312.6
2015-Aug-27 07:33N 52°57' E 001°56'9911.0
2015-Aug-26 22:33N 51°34' E 003°25'1111.3
2015-Aug-26 21:33N 51°26' E 003°37'10 9.5
2015-Aug-26 20:33N 51°21' E 003°50'9 8.8
2015-Aug-26 19:33N 51°25' E 004°02'8 8.2
2015-Aug-26 18:33N 51°22' E 004°14'3 1.3
2015-Aug-26 16:23N 51°21' E 004°18'5 5.8
2015-Aug-26 15:34N 51°16' E 004°20'0 0.4
2015-Aug-26 14:31N 51°16' E 004°20'0 0.0
2015-Aug-26 13:31N 51°16' E 004°20'0 0.0
2015-Aug-26 12:31N 51°16' E 004°20'0 0.0
2015-Aug-26 11:28N 51°16' E 004°20'0 0.0
2015-Aug-26 10:31N 51°16' E 004°20'0 0.0
2015-Aug-26 09:25N 51°16' E 004°20'0 0.0
2015-Aug-26 08:31N 51°16' E 004°20'0 0.0
2015-Aug-26 07:31N 51°16' E 004°20'0 0.0
2015-Aug-26 06:31N 51°16' E 004°20'0 0.0
2015-Aug-26 05:31N 51°16' E 004°20'0 0.0
2015-Aug-26 04:25N 51°16' E 004°20'0 0.0
2015-Aug-26 03:31N 51°16' E 004°20'0 0.0
2015-Aug-26 02:31N 51°16' E 004°20'0 0.0
2015-Aug-26 01:25N 51°16' E 004°20'0 0.0
2015-Aug-26 00:25N 51°16' E 004°20'0 0.0
2015-Aug-25 23:19N 51°16' E 004°20'0 0.0
2015-Aug-25 22:31N 51°16' E 004°20'0 0.0
2015-Aug-25 21:19N 51°16' E 004°20'0 0.0
2015-Aug-25 20:25N 51°16' E 004°20'0 0.0
2015-Aug-25 19:31N 51°16' E 004°20'0 0.0
2015-Aug-25 18:28N 51°16' E 004°20'0 0.0
2015-Aug-25 17:31N 51°16' E 004°20'0 0.0
2015-Aug-25 16:32N 51°16' E 004°20'0 0.0
2015-Aug-25 15:31N 51°16' E 004°20'0 0.0
2015-Aug-25 14:28N 51°16' E 004°20'0 0.0
2015-Aug-25 13:32N 51°16' E 004°20'0 0.0
2015-Aug-25 12:32N 51°16' E 004°20'0 0.0
2015-Aug-25 11:32N 51°16' E 004°20'0 0.0
2015-Aug-25 10:26N 51°16' E 004°20'0 0.0
2015-Aug-25 09:32N 51°16' E 004°20'0 0.0
2015-Aug-25 08:29N 51°16' E 004°20'0 0.0
2015-Aug-25 07:32N 51°16' E 004°20'0 0.0
2015-Aug-25 06:32N 51°16' E 004°20'0 0.0
2015-Aug-25 05:29N 51°16' E 004°20'0 0.0
2015-Aug-25 04:26N 51°16' E 004°20'0 0.0
2015-Aug-25 03:32N 51°16' E 004°20'0 0.0
2015-Aug-25 02:32N 51°16' E 004°20'0 0.0
2015-Aug-25 01:32N 51°16' E 004°20'0 0.0
2015-Aug-25 00:32N 51°16' E 004°20'0 0.0
2015-Aug-24 23:32N 51°16' E 004°20'0 0.0
2015-Aug-24 22:32N 51°16' E 004°20'2 1.7
2015-Aug-24 21:33N 51°17' E 004°20'4 3.9
2015-Aug-24 20:33N 51°21' E 004°17'4 3.5
2015-Aug-24 19:33N 51°23' E 004°13'7 6.8
2015-Aug-24 18:33N 51°24' E 004°02'8 8.1
2015-Aug-24 17:33N 51°21' E 003°50'1212.0
2015-Aug-24 16:33N 51°25' E 003°33'10 9.5
2015-Aug-24 15:32N 51°24' E 003°17'1010.4
2015-Aug-24 14:34N 51°24' E 003°01'1010.3
2015-Aug-24 13:34N 51°21' E 002°45'7 7.2
2015-Aug-24 12:33N 51°20' E 002°33'0 0.0
2015-Aug-24 11:33N 51°20' E 002°33'0 0.0
2015-Aug-24 10:21N 51°20' E 002°34'0 0.1
2015-Aug-24 09:30N 51°20' E 002°34'0 0.0
2015-Aug-24 06:24N 51°20' E 002°34'0 0.0
2015-Aug-24 05:33N 51°20' E 002°34'0 0.0
2015-Aug-24 04:30N 51°20' E 002°34'0 0.1
2015-Aug-24 03:33N 51°20' E 002°33'0 0.0
2015-Aug-24 01:33N 51°20' E 002°34'0 0.0
2015-Aug-24 00:33N 51°20' E 002°34'0 0.1
2015-Aug-23 23:03N 51°20' E 002°34'0 0.0
2015-Aug-23 22:33N 51°20' E 002°34'0 0.0
2015-Aug-23 21:18N 51°20' E 002°34'0 0.0
2015-Aug-23 20:30N 51°20' E 002°34'0 0.0
2015-Aug-23 19:33N 51°20' E 002°34'0 0.0
2015-Aug-23 18:30N 51°20' E 002°34'0 0.0
2015-Aug-23 17:06N 51°20' E 002°34'0 0.1
2015-Aug-23 15:27N 51°20' E 002°34'0 0.1
2015-Aug-23 14:33N 51°20' E 002°33'0 0.1
2015-Aug-23 13:24N 51°20' E 002°33'0 0.0
2015-Aug-23 12:30N 51°20' E 002°33'0 0.0
2015-Aug-23 11:15N 51°20' E 002°33'0 0.0
2015-Aug-23 10:30N 51°20' E 002°33'0 0.0
2015-Aug-23 09:24N 51°20' E 002°33'0 0.1
2015-Aug-23 08:34N 51°20' E 002°33'8 8.1
2015-Aug-23 07:31N 51°20' E 002°20'1414.2
2015-Aug-23 06:33N 51°12' E 002°01'1413.6
2015-Aug-23 05:33N 51°05' E 001°43'1413.7
2015-Aug-23 04:34N 50°54' E 001°31'1313.4
2015-Aug-23 03:33N 50°42' E 001°20'1512.5
2015-Aug-23 02:20N 50°32' E 001°02'2312.2
2015-Aug-23 00:25N 50°24' E 000°28'3511.4
2015-Aug-22 21:24N 50°16' W 000°25'1110.5
2015-Aug-22 20:23N 50°13' W 000°41'1910.0
2015-Aug-22 18:27N 50°08' W 001°10'3010.2
2015-Aug-22 15:31N 49°59' W 001°54'1712.2
2015-Aug-22 14:07N 49°54' W 002°20'  
Track history (hours):
 
Tides and Currents Weather Stations Pressure Air Temp Water Temp Dewpoint Dewpoint Depression Visibility Wind Speed Wind Dir Waves Ship Positions

Bitflower

Last reported at 2015-Sep-01 09:33 UTC. Time now 2015-Sep-01 10:12 UTC.
Position N 54°02' E 007°45'.

Length 116 m; draft 5.7 m.

Type: Ship. MMSI: 266009000.

Date/timePositionNaut miles runAvg speedWind from/ knotsBaromVisibWave heightAir tempDewpointWater temp
2015-Sep-01 09:33N 54°02' E 007°45'1010.6
2015-Sep-01 08:33N 54°01' E 008°03'1411.5
2015-Sep-01 07:21N 53°59' E 008°26'1114.4
2015-Sep-01 06:33N 53°53' E 008°43'1414.4
2015-Sep-01 05:33N 53°53' E 009°07'1111.5
2015-Sep-01 04:34N 53°47' E 009°24'1211.9
2015-Sep-01 03:33N 53°36' E 009°35'10 9.7
2015-Sep-01 02:33N 53°33' E 009°50'6 6.3
2015-Sep-01 01:33N 53°29' E 009°58'0 0.0
2015-Sep-01 00:31N 53°29' E 009°58'0 0.0
2015-Aug-31 23:31N 53°29' E 009°58'0 0.0
2015-Aug-31 22:29N 53°29' E 009°58'0 0.0
2015-Aug-31 21:29N 53°29' E 009°58'0 0.0
2015-Aug-31 20:31N 53°29' E 009°58'0 0.0
2015-Aug-31 19:31N 53°29' E 009°58'0 0.0
2015-Aug-31 18:29N 53°29' E 009°58'0 0.0
2015-Aug-31 17:29N 53°29' E 009°58'0 0.0
2015-Aug-31 16:31N 53°29' E 009°58'0 0.0
2015-Aug-31 15:32N 53°29' E 009°58'0 0.0
2015-Aug-31 14:31N 53°29' E 009°58'0 0.0
2015-Aug-31 13:31N 53°29' E 009°58'0 0.0
2015-Aug-31 12:31N 53°29' E 009°58'0 0.0
2015-Aug-31 11:31N 53°29' E 009°58'0 0.0
2015-Aug-31 10:31N 53°29' E 009°58'0 0.0
2015-Aug-31 09:31N 53°29' E 009°58'0 0.0
2015-Aug-31 08:32N 53°29' E 009°58'0 0.0
2015-Aug-31 07:32N 53°29' E 009°58'0 0.0
2015-Aug-31 06:26N 53°29' E 009°58'0 0.0
2015-Aug-31 05:32N 53°29' E 009°58'0 0.0
2015-Aug-31 04:32N 53°29' E 009°58'0 0.0
2015-Aug-31 03:29N 53°29' E 009°58'0 0.0
2015-Aug-31 02:32N 53°29' E 009°58'0 0.0
2015-Aug-31 01:32N 53°29' E 009°58'0 0.0
2015-Aug-31 00:32N 53°29' E 009°58'1 0.9
2015-Aug-30 23:33N 53°30' E 009°57'7 7.4
2015-Aug-30 22:33N 53°34' E 009°47'1110.9
2015-Aug-30 21:32N 53°39' E 009°31'1111.5
2015-Aug-30 20:33N 53°49' E 009°22'10 9.7
2015-Aug-30 19:33N 53°53' E 009°06'1010.2
2015-Aug-30 18:33N 53°50' E 008°49'10 9.7
2015-Aug-30 17:33N 53°57' E 008°38'1110.8
2015-Aug-30 16:33N 53°59' E 008°20'1212.1
2015-Aug-30 15:33N 54°01' E 007°59'1212.4
2015-Aug-30 14:33N 54°08' E 007°41'1211.7
2015-Aug-30 13:33N 54°15' E 007°26'1211.5
2015-Aug-30 12:33N 54°23' E 007°12'1111.3
2015-Aug-30 11:33N 54°29' E 006°55'32613.6
2015-Aug-29 11:33N 56°21' W 002°05'1110.7
2015-Aug-29 10:33N 56°24' W 002°23'1212.0
2015-Aug-29 09:33N 56°27' W 002°44'1 0.1
2015-Aug-28 21:33N 56°27' W 002°47'1111.6
2015-Aug-28 20:33N 56°23' W 002°28'1414.3
2015-Aug-28 19:33N 56°12' W 002°11'7512.5
2015-Aug-28 13:33N 55°04' W 001°12'1312.6
2015-Aug-28 12:32N 54°51' W 001°09'1212.7
2015-Aug-28 11:34N 54°39' W 001°08'3 2.2
2015-Aug-28 10:22N 54°37' W 001°10'0 0.0
2015-Aug-28 09:28N 54°37' W 001°10'0 0.0
2015-Aug-28 07:10N 54°37' W 001°10'0 0.0
2015-Aug-28 06:16N 54°37' W 001°10'2 0.2
2015-Aug-27 20:15N 54°39' W 001°09'710.5
2015-Aug-27 19:32N 54°42' W 000°57'1413.3
2015-Aug-27 18:30N 54°42' W 000°34'1213.1
2015-Aug-27 17:33N 54°41' W 000°12'1312.7
2015-Aug-27 16:33N 54°31' E 000°02'1212.3
2015-Aug-27 15:33N 54°21' E 000°14'1212.1
2015-Aug-27 14:34N 54°11' E 000°25'1212.0
2015-Aug-27 13:33N 54°01' E 000°36'1312.3
2015-Aug-27 12:30N 53°50' E 000°49'4213.7
2015-Aug-27 09:28N 53°16' E 001°30'1213.7
2015-Aug-27 08:33N 53°06' E 001°42'1312.6
2015-Aug-27 07:33N 52°57' E 001°56'9911.0
2015-Aug-26 22:33N 51°34' E 003°25'1111.3
2015-Aug-26 21:33N 51°26' E 003°37'10 9.5
2015-Aug-26 20:33N 51°21' E 003°50'9 8.8
2015-Aug-26 19:33N 51°25' E 004°02'8 8.2
2015-Aug-26 18:33N 51°22' E 004°14'3 1.3
2015-Aug-26 16:23N 51°21' E 004°18'5 5.8
2015-Aug-26 15:34N 51°16' E 004°20'0 0.4
2015-Aug-26 14:31N 51°16' E 004°20'0 0.0
2015-Aug-26 13:31N 51°16' E 004°20'0 0.0
2015-Aug-26 12:31N 51°16' E 004°20'0 0.0
2015-Aug-26 11:28N 51°16' E 004°20'0 0.0
2015-Aug-26 10:31N 51°16' E 004°20'0 0.0
2015-Aug-26 09:25N 51°16' E 004°20'0 0.0
2015-Aug-26 08:31N 51°16' E 004°20'0 0.0
2015-Aug-26 07:31N 51°16' E 004°20'0 0.0
2015-Aug-26 06:31N 51°16' E 004°20'0 0.0
2015-Aug-26 05:31N 51°16' E 004°20'0 0.0
2015-Aug-26 04:25N 51°16' E 004°20'0 0.0
2015-Aug-26 03:31N 51°16' E 004°20'0 0.0
2015-Aug-26 02:31N 51°16' E 004°20'0 0.0
2015-Aug-26 01:25N 51°16' E 004°20'0 0.0
2015-Aug-26 00:25N 51°16' E 004°20'0 0.0
2015-Aug-25 23:19N 51°16' E 004°20'0 0.0
2015-Aug-25 22:31N 51°16' E 004°20'0 0.0
2015-Aug-25 21:19N 51°16' E 004°20'0 0.0
2015-Aug-25 20:25N 51°16' E 004°20'0 0.0
2015-Aug-25 19:31N 51°16' E 004°20'0 0.0
2015-Aug-25 18:28N 51°16' E 004°20'0 0.0
2015-Aug-25 17:31N 51°16' E 004°20'0 0.0
2015-Aug-25 16:32N 51°16' E 004°20'0 0.0
2015-Aug-25 15:31N 51°16' E 004°20'0 0.0
2015-Aug-25 14:28N 51°16' E 004°20'0 0.0
2015-Aug-25 13:32N 51°16' E 004°20'0 0.0
2015-Aug-25 12:32N 51°16' E 004°20'0 0.0
2015-Aug-25 11:32N 51°16' E 004°20'0 0.0
2015-Aug-25 10:26N 51°16' E 004°20'0 0.0
2015-Aug-25 09:32N 51°16' E 004°20'0 0.0
2015-Aug-25 08:29N 51°16' E 004°20'0 0.0
2015-Aug-25 07:32N 51°16' E 004°20'0 0.0
2015-Aug-25 06:32N 51°16' E 004°20'0 0.0
2015-Aug-25 05:29N 51°16' E 004°20'0 0.0
2015-Aug-25 04:26N 51°16' E 004°20'0 0.0
2015-Aug-25 03:32N 51°16' E 004°20'0 0.0
2015-Aug-25 02:32N 51°16' E 004°20'0 0.0
2015-Aug-25 01:32N 51°16' E 004°20'0 0.0
2015-Aug-25 00:32N 51°16' E 004°20'0 0.0
2015-Aug-24 23:32N 51°16' E 004°20'0 0.0
2015-Aug-24 22:32N 51°16' E 004°20'2 1.7
2015-Aug-24 21:33N 51°17' E 004°20'4 3.9
2015-Aug-24 20:33N 51°21' E 004°17'4 3.5
2015-Aug-24 19:33N 51°23' E 004°13'7 6.8
2015-Aug-24 18:33N 51°24' E 004°02'8 8.1
2015-Aug-24 17:33N 51°21' E 003°50'1212.0
2015-Aug-24 16:33N 51°25' E 003°33'10 9.5
2015-Aug-24 15:32N 51°24' E 003°17'1010.4
2015-Aug-24 14:34N 51°24' E 003°01'1010.3
2015-Aug-24 13:34N 51°21' E 002°45'7 7.2
2015-Aug-24 12:33N 51°20' E 002°33'0 0.0
2015-Aug-24 11:33N 51°20' E 002°33'0 0.0
2015-Aug-24 10:21N 51°20' E 002°34'0 0.1
2015-Aug-24 09:30N 51°20' E 002°34'0 0.0
2015-Aug-24 06:24N 51°20' E 002°34'0 0.0
2015-Aug-24 05:33N 51°20' E 002°34'0 0.0
2015-Aug-24 04:30N 51°20' E 002°34'0 0.1
2015-Aug-24 03:33N 51°20' E 002°33'0 0.0
2015-Aug-24 01:33N 51°20' E 002°34'0 0.0
2015-Aug-24 00:33N 51°20' E 002°34'0 0.1
2015-Aug-23 23:03N 51°20' E 002°34'0 0.0
2015-Aug-23 22:33N 51°20' E 002°34'0 0.0
2015-Aug-23 21:18N 51°20' E 002°34'0 0.0
2015-Aug-23 20:30N 51°20' E 002°34'0 0.0
2015-Aug-23 19:33N 51°20' E 002°34'0 0.0
2015-Aug-23 18:30N 51°20' E 002°34'0 0.0
2015-Aug-23 17:06N 51°20' E 002°34'0 0.1
2015-Aug-23 15:27N 51°20' E 002°34'0 0.1
2015-Aug-23 14:33N 51°20' E 002°33'0 0.1
2015-Aug-23 13:24N 51°20' E 002°33'0 0.0
2015-Aug-23 12:30N 51°20' E 002°33'0 0.0
2015-Aug-23 11:15N 51°20' E 002°33'0 0.0
2015-Aug-23 10:30N 51°20' E 002°33'0 0.0
2015-Aug-23 09:24N 51°20' E 002°33'0 0.1
2015-Aug-23 08:34N 51°20' E 002°33'8 8.1
2015-Aug-23 07:31N 51°20' E 002°20'1414.2
2015-Aug-23 06:33N 51°12' E 002°01'1413.6
2015-Aug-23 05:33N 51°05' E 001°43'1413.7
2015-Aug-23 04:34N 50°54' E 001°31'1313.4
2015-Aug-23 03:33N 50°42' E 001°20'1512.5
2015-Aug-23 02:20N 50°32' E 001°02'2312.2
2015-Aug-23 00:25N 50°24' E 000°28'3511.4
2015-Aug-22 21:24N 50°16' W 000°25'1110.5
2015-Aug-22 20:23N 50°13' W 000°41'1910.0
2015-Aug-22 18:27N 50°08' W 001°10'3010.2
2015-Aug-22 15:31N 49°59' W 001°54'1712.2
2015-Aug-22 14:07N 49°54' W 002°20'  

Dump ship's entire track history